Latest Weather Observations for Oakey

IDQ60901

Issued at 5:41 pm EST Wednesday 27 July 2016 (issued every 10 minutes, with the page automatically refreshed every 10 minutes)

About weather observations | Map of Brisbane area stations | Latest observations for Brisbane area | Other Formats
Station Details ID: 041359 Name: OAKEY AERO Lat: -27.40 Lon: 151.74 Height: 405.69 m
Data from the previous 72 hours. | See also: Recent months at Oakey
Date/Time
EST
Temp
°C
App
Temp
°C
Dew
Point
°C
Rel
Hum
%
Delta-T
°C
Wind Press
QNH
hPa
Press
MSL
hPa
Rain since
9am
mm
Dir  Spd
km/h
Gust
km/h
Spd
kts
Gust
kts
27/05:30pm 14.5 9.0 1.8 42 5.7 SW 20 26 11 14 1019.6 1019.7 -
27/05:00pm 16.0 10.6 2.4 40 6.2 SW 20 28 11 15 1019.2 1019.3 -
27/04:30pm 17.2 10.1 1.6 35 7.1 WSW 28 35 15 19 1018.8 1018.9 -
27/04:00pm 17.7 10.7 2.1 35 7.2 WSW 28 43 15 23 1018.5 1018.6 -
27/03:30pm 17.9 12.6 3.0 37 7.0 WSW 20 28 11 15 1018.6 1018.7 -
27/03:00pm 16.8 10.5 1.7 36 6.9 WSW 24 32 13 17 1018.5 1018.6 -
27/02:30pm 16.0 9.8 2.4 40 6.2 WSW 24 32 13 17 1018.6 1018.7 -
27/02:00pm 15.5 9.9 3.3 44 5.7 WSW 22 30 12 16 1018.7 1018.8 -
27/01:30pm 14.7 9.4 3.2 46 5.3 SW 20 28 11 15 1019.0 1019.1 -
27/01:00pm 14.6 8.6 3.4 47 5.2 SW 24 28 13 15 1019.4 1019.5 -
27/12:30pm 13.7 7.6 2.9 48 4.9 SW 24 32 13 17 1020.0 1020.2 -
27/12:00pm 13.8 7.3 2.4 46 5.1 WSW 26 33 14 18 1020.5 1020.7 -
27/11:00am 12.8 - 2.6 50 4.6 - - - - - 1021.0 1021.1 -
27/10:30am 12.8 - 3.5 53 4.3 - - - - - 1021.4 - -
27/10:00am 12.7 7.8 3.9 55 4.0 WSW 19 24 10 13 1021.5 1021.6 0.0
27/09:30am 11.6 7.9 4.6 62 3.2 W 13 17 7 9 1021.6 1021.7 0.0
27/09:00am 10.6 6.5 4.3 65 2.9 W 15 19 8 10 1021.7 1021.8 0.0
27/08:30am 10.0 6.7 4.4 68 2.6 W 11 13 6 7 1021.4 1021.5 0.0
27/08:00am 9.6 5.9 4.4 70 2.4 WNW 13 15 7 8 1021.3 1021.4 0.0
27/07:30am 9.0 6.5 5.0 76 1.8 WNW 7 7 4 4 1020.6 1020.8 0.0
27/07:00am 8.8 6.0 5.0 77 1.7 WNW 9 11 5 6 1020.9 1021.0 0.0
27/06:30am 8.7 5.8 4.9 77 1.7 W 9 11 5 6 1020.4 1020.6 0.0
27/06:00am 9.1 6.6 4.7 74 2.0 WNW 7 9 4 5 1020.4 1020.6 0.0
27/05:30am 9.2 6.3 4.6 73 2.1 WNW 9 11 5 6 1020.4 1020.6 0.0
27/05:00am 9.1 6.6 4.7 74 2.0 NW 7 9 4 5 1019.4 1019.5 0.0
27/04:30am 9.3 6.3 4.1 70 2.3 NW 9 11 5 6 1019.4 1019.5 0.0
27/04:00am 9.4 6.0 4.0 69 2.4 WNW 11 13 6 7 1019.3 1019.4 0.0
27/03:30am 9.3 6.0 4.3 71 2.3 NW 11 13 6 7 1019.4 1019.5 0.0
27/03:00am 9.4 6.0 4.2 70 2.3 W 11 13 6 7 1019.5 1019.6 0.0
27/02:30am 9.6 7.0 4.4 70 2.4 NW 7 7 4 4 1018.9 1019.0 0.0
27/02:00am 10.1 7.4 3.8 65 2.8 NW 7 9 4 5 1019.0 1019.1 0.0
27/01:30am 10.5 6.7 3.8 63 3.0 WSW 13 17 7 9 1019.7 1019.8 0.0
27/01:00am 10.8 7.7 3.8 62 3.2 WNW 9 13 5 7 1019.4 1019.5 0.0
27/12:30am 11.1 7.2 3.6 60 3.4 WNW 13 13 7 7 1019.6 1019.7 0.0
27/12:00am 11.5 7.6 3.3 57 3.7 WNW 13 17 7 9 1019.5 1019.6 0.0
 
Date/Time
EST
Temp
°C
App
Temp
°C
Dew
Point
°C
Rel
Hum
%
Delta-T
°C
Wind Press
QNH
hPa
Press
MSL
hPa
Rain since
9am
mm
Dir  Spd
km/h
Gust
km/h
Spd
kts
Gust
kts
26/11:30pm 11.5 8.4 3.5 58 3.6 NW 9 13 5 7 1019.5 1019.6 0.0
26/11:00pm 11.4 7.6 3.7 59 3.5 NNW 13 15 7 8 1019.5 1019.6 0.0
26/10:30pm 11.8 7.9 3.6 57 3.7 NW 13 15 7 8 1019.5 1019.6 0.0
26/10:00pm 11.9 7.6 3.4 56 3.8 W 15 17 8 9 1019.4 1019.5 0.0
26/09:30pm 12.6 8.3 3.0 52 4.3 W 15 17 8 9 1019.2 1019.3 0.0
26/09:00pm 13.1 8.3 2.4 48 4.8 WNW 17 20 9 11 1019.5 1019.6 0.0
26/08:30pm 13.1 8.3 2.4 48 4.8 WNW 17 19 9 10 1019.0 1019.1 0.0
26/08:00pm 12.5 8.9 2.9 52 4.3 NNW 11 15 6 8 1019.2 1019.3 0.0
26/07:30pm 12.5 9.0 3.5 54 4.1 WNW 11 15 6 8 1019.4 1019.5 0.0
26/07:00pm 13.1 9.9 2.9 50 4.6 WNW 9 9 5 5 1018.6 1018.7 0.0
26/06:30pm 12.4 9.8 4.4 58 3.7 WNW 7 11 4 6 1018.3 1018.4 0.0
26/06:00pm 13.9 10.2 2.5 46 5.1 SW 11 13 6 7 1017.7 1017.8 0.0
26/05:30pm 14.4 10.7 2.6 45 5.4 WSW 11 13 6 7 1017.7 1017.8 0.0
26/05:00pm 15.3 11.4 3.5 45 5.5 W 13 13 7 7 1017.5 1017.6 0.0
26/04:30pm 16.6 13.1 1.1 35 7.0 WSW 9 13 5 7 1017.2 1017.3 0.0
26/04:00pm 17.3 12.5 0.0 31 7.6 W 15 20 8 11 1017.2 1017.3 0.0
26/03:30pm 17.7 13.0 1.2 33 7.5 WSW 15 24 8 13 1017.3 1017.4 0.0
26/03:00pm 17.8 12.7 0.9 32 7.6 WSW 17 22 9 12 1017.5 1017.6 0.0
26/02:30pm 17.3 11.5 -0.4 30 7.7 WSW 20 28 11 15 1017.7 1017.8 0.0
26/02:00pm 17.2 12.1 0.8 33 7.3 WSW 17 24 9 13 1017.9 1018.1 0.0
26/01:30pm 16.9 11.9 1.4 35 7.0 WSW 17 24 9 13 1018.2 1018.3 0.0
26/01:00pm 15.4 10.7 0.8 37 6.4 WSW 15 20 8 11 1018.7 1018.8 0.0
26/12:30pm 14.9 10.6 1.1 39 6.1 WSW 13 17 7 9 1019.2 1019.3 0.0
26/12:00pm 14.7 10.4 0.9 39 6.0 SW 13 17 7 9 1019.5 1019.6 0.0
26/11:30am 14.9 10.2 1.1 39 6.1 SW 15 22 8 12 1020.4 1020.6 0.0
26/11:00am 13.6 9.0 1.6 44 5.3 SW 15 24 8 13 1020.9 1021.0 0.0
26/10:30am 13.4 8.2 2.6 48 4.9 WSW 19 24 10 13 1021.3 1021.4 0.0
26/10:00am 11.8 8.0 4.1 59 3.5 W 13 17 7 9 1021.4 1021.5 0.0
26/09:30am 10.7 7.9 3.3 60 3.3 WSW 7 11 4 6 1021.5 1021.6 0.0
26/09:00am 10.1 6.9 2.9 61 3.2 WSW 9 13 5 7 1021.5 1021.6 0.0
26/08:30am 9.7 5.8 3.4 65 2.8 W 13 15 7 8 1021.5 1021.6 0.0
26/08:00am 8.9 5.0 3.5 69 2.4 W 13 15 7 8 1021.4 1021.5 0.0
26/07:30am 7.9 4.1 3.9 76 1.8 WNW 13 15 7 8 1021.3 1021.4 0.0
26/07:00am 7.0 3.2 4.0 81 1.3 WNW 13 15 7 8 1020.6 1020.8 0.0
26/06:30am 6.5 3.0 3.7 82 1.2 NW 11 13 6 7 1020.5 1020.7 0.0
26/06:00am 6.9 3.4 3.7 80 1.4 WNW 11 13 6 7 1020.4 1020.6 0.0
26/05:30am 7.1 4.1 3.9 80 1.4 W 9 11 5 6 1019.8 1019.9 0.0
26/05:00am 7.1 4.5 4.1 81 1.3 NW 7 7 4 4 1019.9 1020.0 0.0
26/04:30am 7.3 3.8 3.7 78 1.6 NW 11 13 6 7 1020.0 1020.2 0.0
26/04:00am 7.1 3.3 4.1 81 1.3 W 13 17 7 9 1020.1 1020.3 0.0
26/03:30am 7.9 4.9 4.1 77 1.7 W 9 13 5 7 1019.1 1019.2 0.0
26/03:00am 8.5 5.3 5.1 79 1.6 WNW 11 13 6 7 1019.7 1019.8 0.0
26/02:30am 8.4 5.2 5.0 79 1.6 NNW 11 11 6 6 1019.4 1019.5 0.0
26/02:00am 8.5 6.0 4.9 78 1.6 NNW 7 9 4 5 1019.5 1019.6 0.0
26/01:30am 9.5 8.3 4.5 71 2.3 CALM 0 6 0 3 1019.5 1019.6 0.0
26/01:00am 10.1 7.1 4.0 66 2.8 SW 9 13 5 7 1019.5 1019.6 0.0
26/12:30am 10.6 6.8 4.1 64 3.0 SW 13 17 7 9 1019.9 1020.0 0.0
26/12:00am 10.1 7.5 4.0 66 2.8 SW 7 11 4 6 1019.5 1019.6 0.0
 
Date/Time
EST
Temp
°C
App
Temp
°C
Dew
Point
°C
Rel
Hum
%
Delta-T
°C
Wind Press
QNH
hPa
Press
MSL
hPa
Rain since
9am
mm
Dir  Spd
km/h
Gust
km/h
Spd
kts
Gust
kts
25/11:30pm 10.3 7.2 3.8 64 2.9 WSW 9 15 5 8 1019.8 1019.9 0.0
25/11:00pm 10.9 7.1 4.1 63 3.1 SW 13 17 7 9 1019.8 1019.9 0.0
25/10:30pm 9.8 6.8 4.0 67 2.6 W 9 11 5 6 1019.6 1019.7 0.0
25/10:00pm 9.8 6.8 4.0 67 2.6 W 9 11 5 6 1019.5 1019.6 0.0
25/09:30pm 10.1 7.5 4.3 67 2.6 W 7 11 4 6 1019.8 1019.9 0.0
25/09:00pm 10.4 7.1 4.5 67 2.7 WSW 11 15 6 8 1019.6 1019.7 0.0
25/08:30pm 10.0 7.4 4.0 66 2.7 WNW 7 9 4 5 1019.6 1019.7 0.0
25/08:00pm 10.0 6.5 3.3 63 3.0 WNW 11 13 6 7 1019.5 1019.6 0.0
25/07:30pm 10.3 6.9 4.0 65 2.9 WNW 11 13 6 7 1019.2 1019.3 0.0
25/07:00pm 10.1 6.9 3.2 62 3.1 W 9 13 5 7 1018.9 1019.0 0.0
25/06:30pm 11.9 7.9 2.9 54 4.0 SW 13 15 7 8 1018.7 1018.8 0.0
25/06:00pm 12.6 8.5 2.5 50 4.5 SW 13 17 7 9 1018.4 1018.5 0.0
25/05:30pm 14.2 9.3 2.1 44 5.4 SW 17 20 9 11 1017.9 1018.1 0.0
25/05:00pm 15.6 10.1 1.7 39 6.3 SW 20 28 11 15 1017.7 1017.8 0.0
25/04:30pm 17.2 11.7 2.0 36 7.0 SW 20 26 11 14 1017.4 1017.5 0.0
25/04:00pm 18.1 12.6 2.0 34 7.4 SW 20 26 11 14 1017.3 1017.4 0.0
25/03:30pm 18.2 12.2 1.3 32 7.7 WSW 22 32 12 17 1017.0 1017.1 0.0
25/03:00pm 18.3 11.8 0.4 30 8.0 WSW 24 35 13 19 1017.1 1017.2 0.0
25/02:30pm 18.7 12.5 2.1 33 7.7 WSW 24 33 13 18 1017.0 1017.1 0.0
25/02:00pm 18.1 11.5 2.0 34 7.4 WSW 26 35 14 19 1017.3 1017.4 0.0
25/01:30pm 17.9 11.1 1.0 32 7.7 WSW 26 39 14 21 1017.6 1017.7 0.0
25/01:00pm 17.7 11.4 1.7 34 7.3 WSW 24 37 13 20 1017.9 1018.1 0.0
25/12:30pm 17.2 10.9 1.6 35 7.1 WSW 24 35 13 19 1018.4 1018.5 0.0
25/12:00pm 16.9 11.1 2.1 37 6.8 WSW 22 33 12 18 1018.8 1018.9 0.0
25/11:30am 16.0 10.2 2.4 40 6.2 SW 22 33 12 18 1019.2 1019.3 0.0
25/11:00am 15.2 9.0 2.1 41 5.9 SW 24 33 13 18 1019.5 1019.6 0.0
25/10:30am 15.4 9.1 3.5 45 5.6 SW 26 33 14 18 1020.0 1020.2 0.0
25/10:00am 14.4 9.1 3.2 47 5.1 WSW 20 30 11 16 1020.4 1020.6 0.0
25/09:30am 12.7 8.0 3.4 53 4.2 SW 17 22 9 12 1020.3 1020.5 0.0
25/09:00am 11.2 7.0 3.7 60 3.4 WSW 15 22 8 12 1020.3 1020.5 0.0
25/08:30am 10.1 6.8 4.7 69 2.5 W 11 15 6 8 1020.3 1020.5 0.0
25/08:00am 8.5 4.9 4.9 78 1.6 W 13 17 7 9 1020.0 1020.2 0.0
25/07:30am 5.9 1.6 3.4 84 1.1 W 15 17 8 9 1019.8 1019.9 0.0
25/07:00am 3.7 0.3 1.9 88 0.7 W 9 11 5 6 1019.5 1019.6 0.0
25/06:30am 4.0 -0.2 1.9 86 0.9 W 13 17 7 9 1019.1 1019.2 0.0
25/06:00am 4.8 1.2 2.7 86 0.9 W 11 13 6 7 1018.7 1018.8 0.0
25/05:30am 4.6 0.9 2.1 84 1.0 W 11 13 6 7 1018.5 1018.6 0.0
25/05:00am 5.2 0.8 2.7 84 1.0 W 15 17 8 9 1018.4 1018.5 0.0
25/04:30am 6.1 3.3 3.1 81 1.3 WSW 7 9 4 5 1018.0 1018.2 0.0
25/04:00am 6.8 4.4 4.3 84 1.1 NW 6 7 3 4 1017.9 1018.1 0.0
25/03:30am 6.9 5.8 4.9 87 0.9 CALM 0 0 0 0 1017.8 1017.9 0.0
25/03:00am 6.7 5.6 5.2 90 0.7 CALM 0 0 0 0 1017.7 1017.8 0.0
25/02:30am 6.7 4.8 4.7 87 0.9 NW 4 9 2 5 1017.6 1017.7 0.0
25/02:00am 6.3 3.4 4.5 88 0.8 N 9 13 5 7 1017.3 1017.4 0.0
25/01:30am 6.6 4.0 3.2 79 1.5 WNW 6 7 3 4 1017.5 1017.6 0.0
25/01:00am 6.9 5.4 3.0 76 1.7 CALM 0 6 0 3 1017.6 1017.7 0.0
25/12:30am 7.5 6.1 3.6 76 1.7 CALM 0 0 0 0 1017.5 1017.6 0.0
25/12:00am 7.5 6.2 3.9 78 1.6 CALM 0 0 0 0 1017.4 1017.5 0.0
 
Date/Time
EST
Temp
°C
App
Temp
°C
Dew
Point
°C
Rel
Hum
%
Delta-T
°C
Wind Press
QNH
hPa
Press
MSL
hPa
Rain since
9am
mm
Dir  Spd
km/h
Gust
km/h
Spd
kts
Gust
kts
24/11:30pm 8.5 7.2 4.3 75 1.9 CALM 0 6 0 3 1017.3 1017.4 0.0
24/11:00pm 9.8 7.5 5.0 72 2.2 NE 6 7 3 4 1017.3 1017.4 0.0
24/10:30pm 9.4 7.2 6.3 81 1.5 NNE 7 9 4 5 1017.1 1017.2 0.0
24/10:00pm 9.9 7.7 5.3 73 2.1 NNE 6 7 3 4 1017.0 1017.1 0.0
24/09:30pm 11.3 9.9 3.6 59 3.5 CALM 0 0 0 0 1017.0 1017.1 0.0
24/09:00pm 12.8 11.4 3.5 53 4.2 CALM 0 0 0 0 1016.8 1016.9 0.0
24/08:30pm 13.3 11.7 2.2 47 5.0 CALM 0 0 0 0 1016.4 1016.5 0.0
24/08:00pm 14.0 10.4 3.2 48 5.0 SW 11 15 6 8 1016.2 1016.3 0.0
24/07:30pm 13.9 10.2 4.2 52 4.5 WSW 13 15 7 8 1016.1 1016.2 0.0
24/07:00pm 14.9 11.2 4.6 50 4.9 W 13 17 7 9 1016.0 1016.1 0.0
24/06:30pm 14.6 11.0 5.1 53 4.6 W 13 15 7 8 1015.6 1015.6 0.0
24/06:00pm 14.4 10.0 4.7 52 4.6 W 17 19 9 10 1015.2 1015.3 0.0

Latest Capital City Observations: Canberra | Sydney | Melbourne | Brisbane | Adelaide | Perth | Hobart | Darwin

Other Formats:

Comma delimited format used in spreadsheet applications
http://www.bom.gov.au/fwo/IDQ60901/IDQ60901.94552.axf

JavaScript Object Notation format (JSON) in row-major order
http://www.bom.gov.au/fwo/IDQ60901/IDQ60901.94552.json